createdAt,value
2022-09-10T00:01:25.658Z,100838.53
2022-09-10T00:03:54.826Z,100834.84
2022-09-10T00:06:26.719Z,100835.16
2022-09-10T00:08:56.292Z,100837.69
2022-09-10T00:11:24.906Z,100838.53
2022-09-10T00:13:55.157Z,100842.25
2022-09-10T00:16:23.539Z,100839.41
2022-09-10T00:18:51.729Z,100833.47
2022-09-10T00:21:21.708Z,100842.91
2022-09-10T00:23:50.690Z,100845.63
2022-09-10T00:26:21.834Z,100841.09
2022-09-10T00:28:50.530Z,100839.47
2022-09-10T00:31:21.893Z,100834.94
2022-09-10T00:33:51.135Z,100843.03
2022-09-10T00:36:21.710Z,100834.41
2022-09-10T00:38:50.961Z,100838.63
2022-09-10T00:41:20.610Z,100843.19
2022-09-10T00:43:51.805Z,100847.72
2022-09-10T00:46:40.343Z,100848.56
2022-09-10T00:49:15.831Z,100857.63
2022-09-10T00:51:45.130Z,100845.88
2022-09-10T00:54:14.573Z,100854.94
2022-09-10T00:56:43.348Z,100853.72
2022-09-10T00:59:15.415Z,100832.31
2022-09-10T01:01:45.025Z,100862.97
2022-09-10T01:04:13.116Z,100865.66
2022-09-10T01:06:42.193Z,100865.66
2022-09-10T01:09:10.944Z,100870.19
2022-09-10T01:12:00.827Z,100870.03
2022-09-10T01:14:47.574Z,100861.25
2022-09-10T01:17:30.483Z,100872.03
2022-09-10T01:20:36.938Z,100863.94
2022-09-10T01:23:28.244Z,100864.25
2022-09-10T01:26:05.016Z,100857.16
2022-09-10T01:28:41.308Z,100857.88
2022-09-10T01:31:15.032Z,100861.41
2022-09-10T01:33:50.960Z,100858.88
2022-09-10T01:36:24.035Z,100864.25
2022-09-10T01:38:53.172Z,100855.19
2022-09-10T01:41:24.151Z,100860.59
2022-09-10T01:43:53.608Z,100861.41
2022-09-10T01:46:35.585Z,100863.28
2022-09-10T01:49:22.288Z,100854.34
2022-09-10T01:52:09.295Z,100846.25
2022-09-10T01:54:48.134Z,100850.78
2022-09-10T01:57:30.934Z,100848.09
2022-09-10T02:00:06.473Z,100844.69
2022-09-10T02:02:42.027Z,100844.69
2022-09-10T02:05:11.862Z,100848.38
2022-09-10T02:07:40.696Z,100855.47
2022-09-10T02:10:10.786Z,100848.22
2022-09-10T02:12:40.164Z,100851.78
2022-09-10T02:15:11.627Z,100846.38
2022-09-10T02:17:40.767Z,100850.09
2022-09-10T02:20:13.751Z,100852.06
2022-09-10T02:22:49.036Z,100853.47
2022-09-10T02:25:17.494Z,100857.16
2022-09-10T02:27:45.990Z,100857.16
2022-09-10T02:30:16.166Z,100854.47
2022-09-10T02:32:44.190Z,100847.41
2022-09-10T02:35:12.266Z,100850.09
2022-09-10T02:37:40.298Z,100847.41
2022-09-10T02:40:09.310Z,100844.41
2022-09-10T02:42:38.332Z,100848.09
2022-09-10T02:45:08.266Z,100842.72
2022-09-10T02:47:37.756Z,100844.41
2022-09-10T02:50:06.832Z,100841.00
2022-09-10T02:52:35.192Z,100829.50
2022-09-10T02:55:03.362Z,100832.78
2022-09-10T02:57:31.443Z,100832.78
2022-09-10T02:59:59.541Z,100826.53
2022-09-10T03:02:27.594Z,100831.94
2022-09-10T03:04:57.055Z,100834.63
2022-09-10T03:07:25.172Z,100829.94
2022-09-10T03:09:53.214Z,100826.25
2022-09-10T03:12:21.960Z,100826.25
2022-09-10T03:14:50.392Z,100825.25
2022-09-10T03:17:18.468Z,100831.63
2022-09-10T03:19:46.484Z,100826.53
2022-09-10T03:22:16.014Z,100833.66
2022-09-10T03:24:44.183Z,100822.88
2022-09-10T03:27:14.053Z,100828.94
2022-09-10T03:29:42.101Z,100828.94
2022-09-10T03:32:10.195Z,100828.09
2022-09-10T03:34:40.001Z,100822.00
2022-09-10T03:37:08.107Z,100826.25
2022-09-10T03:39:37.653Z,100820.84
2022-09-10T03:42:06.252Z,100821.16
2022-09-10T03:44:35.073Z,100824.56
2022-09-10T03:47:03.560Z,100823.69
2022-09-10T03:49:31.645Z,100827.25
2022-09-10T03:52:00.584Z,100812.69
2022-09-10T03:54:28.658Z,100823.69
2022-09-10T03:56:59.055Z,100820.19
2022-09-10T03:59:27.087Z,100812.38
2022-09-10T04:01:55.188Z,100820.19
2022-09-10T04:04:23.317Z,100811.25
2022-09-10T04:06:53.008Z,100818.31
2022-09-10T04:09:21.060Z,100822.88
2022-09-10T04:11:49.144Z,100831.63
2022-09-10T04:14:19.588Z,100830.66
2022-09-10T04:16:47.787Z,100829.78
2022-09-10T04:19:15.886Z,100828.94
2022-09-10T04:21:43.922Z,100830.66
2022-09-10T04:24:13.241Z,100838.72
2022-09-10T04:26:41.458Z,100838.72
2022-09-10T04:29:09.894Z,100840.41
2022-09-10T04:31:39.514Z,100841.00
2022-09-10T04:34:07.785Z,100844.41
2022-09-10T04:36:36.151Z,100848.94
2022-09-10T04:39:04.424Z,100837.31
2022-09-10T04:41:32.535Z,100844.41
2022-09-10T04:44:00.583Z,100837.00
2022-09-10T04:46:28.962Z,100847.94
2022-09-10T04:48:58.430Z,100844.41
2022-09-10T04:51:26.647Z,100841.72
2022-09-10T04:53:54.993Z,100837.00
2022-09-10T04:56:23.091Z,100843.69
2022-09-10T04:58:51.861Z,100841.00
2022-09-10T05:01:19.937Z,100841.00
2022-09-10T05:03:48.048Z,100841.00
2022-09-10T05:06:17.471Z,100839.31
2022-09-10T05:08:45.526Z,100835.59
2022-09-10T05:11:13.556Z,100832.22
2022-09-10T05:13:43.148Z,100835.91
2022-09-10T05:16:11.201Z,100841.00
2022-09-10T05:18:39.513Z,100835.59
2022-09-10T05:21:07.831Z,100797.16
2022-09-10T05:23:37.291Z,100835.59
2022-09-10T05:26:05.399Z,100839.31
2022-09-10T05:28:33.432Z,100840.13
2022-09-10T05:31:01.480Z,100841.84
2022-09-10T05:33:29.564Z,100842.81
2022-09-10T05:35:57.625Z,100841.31
2022-09-10T05:38:26.667Z,100850.09
2022-09-10T05:40:57.178Z,100847.25
2022-09-10T05:43:25.273Z,100850.09
2022-09-10T05:45:53.356Z,100857.16
2022-09-10T05:48:21.809Z,100858.00
2022-09-10T05:50:49.859Z,100864.25
2022-09-10T05:53:18.210Z,100831.25
2022-09-10T05:55:47.151Z,100864.25
2022-09-10T05:58:17.126Z,100865.53
2022-09-10T06:00:45.168Z,100865.25
2022-09-10T06:03:13.290Z,100870.50
2022-09-10T06:05:41.369Z,100875.03
2022-09-10T06:08:09.450Z,100875.88
2022-09-10T06:10:37.500Z,100867.94
2022-09-10T06:13:07.194Z,100877.72
2022-09-10T06:15:37.996Z,100875.03
2022-09-10T06:18:06.163Z,100878.69
2022-09-10T06:20:34.348Z,100863.47
2022-09-10T06:23:02.406Z,100879.00
2022-09-10T06:25:31.204Z,100877.03
2022-09-10T06:27:59.301Z,100879.72
2022-09-10T06:30:27.637Z,100883.38
2022-09-10T06:32:57.603Z,100881.56
2022-09-10T06:35:27.240Z,100882.41
2022-09-10T06:37:56.000Z,100884.09
2022-09-10T06:40:26.618Z,100878.69
2022-09-10T06:42:55.314Z,100889.47
2022-09-10T06:45:24.196Z,100892.16
2022-09-10T06:48:37.068Z,100884.94
2022-09-10T06:50:51.389Z,100885.94
2022-09-10T06:53:22.185Z,100887.78
2022-09-10T06:55:51.104Z,100886.06
2022-09-10T06:58:19.951Z,100885.81
2022-09-10T07:00:48.194Z,100885.81
2022-09-10T07:03:16.883Z,100879.31
2022-09-10T07:05:47.406Z,100883.81
2022-09-10T07:08:16.805Z,100886.91
2022-09-10T07:10:46.772Z,100886.81
2022-09-10T07:13:15.128Z,100900.59
2022-09-10T07:15:46.814Z,100879.34
2022-09-10T07:18:15.566Z,100866.97
2022-09-10T07:20:44.223Z,100907.38
2022-09-10T07:23:14.647Z,100904.59
2022-09-10T07:25:43.099Z,100896.75
2022-09-10T07:28:15.124Z,100842.53
2022-09-10T07:30:43.897Z,100903.84
2022-09-10T07:33:12.334Z,100912.06
2022-09-10T07:35:40.755Z,100909.53
2022-09-10T07:38:18.088Z,100903.75
2022-09-10T07:40:46.621Z,100908.81
2022-09-10T07:43:14.674Z,100908.16
2022-09-10T07:45:42.962Z,100898.00
2022-09-10T07:48:12.707Z,100898.28
2022-09-10T07:50:40.794Z,100908.78
2022-09-10T07:53:08.854Z,100914.16
2022-09-10T07:55:38.605Z,100904.50
2022-09-10T07:58:06.830Z,100917.81
2022-09-10T08:00:34.910Z,100912.75
2022-09-10T08:03:03.568Z,100932.00
2022-09-10T08:05:32.270Z,100932.84
2022-09-10T08:08:00.664Z,100908.22
2022-09-10T08:10:28.740Z,100952.84
2022-09-10T08:12:59.525Z,100941.41
2022-09-10T08:15:27.948Z,100937.09
2022-09-10T08:17:56.014Z,100934.28
2022-09-10T08:20:25.272Z,100944.09
2022-09-10T08:22:53.293Z,100936.00
2022-09-10T08:25:21.668Z,100938.81
2022-09-10T08:27:49.700Z,100945.06
2022-09-10T08:30:19.329Z,100955.84
2022-09-10T08:32:47.425Z,100946.78
2022-09-10T08:35:15.583Z,100947.06
2022-09-10T08:37:43.776Z,100952.44
2022-09-10T08:40:13.475Z,100955.84
2022-09-10T08:42:46.855Z,100954.13
2022-09-10T08:45:21.122Z,100954.97
2022-09-10T08:47:58.656Z,100957.84
2022-09-10T08:50:37.468Z,100945.34
2022-09-10T08:53:14.527Z,100929.16
2022-09-10T08:55:48.356Z,100959.50
2022-09-10T08:58:22.590Z,100957.84
2022-09-10T09:00:57.160Z,100956.13
2022-09-10T09:03:33.646Z,100959.81
2022-09-10T09:06:04.025Z,100965.19
2022-09-10T09:08:36.075Z,100960.81
2022-09-10T09:11:12.068Z,100963.53
2022-09-10T09:14:00.582Z,100963.22
2022-09-10T09:16:41.912Z,100964.91
2022-09-10T09:19:18.273Z,100963.22
2022-09-10T09:21:52.682Z,100957.84
2022-09-10T09:24:25.258Z,100931.25
2022-09-10T09:26:56.858Z,100955.84
2022-09-10T09:29:29.652Z,100952.44
2022-09-10T09:32:00.950Z,100952.44
2022-09-10T09:34:34.763Z,100950.19
2022-09-10T09:37:05.747Z,100944.50
2022-09-10T09:39:39.688Z,100936.59
2022-09-10T09:42:14.690Z,100934.56
2022-09-10T09:44:52.751Z,100940.97
2022-09-10T09:47:24.638Z,100938.25
2022-09-10T09:49:54.038Z,100939.94
2022-09-10T09:52:24.404Z,100939.94
2022-09-10T09:55:14.685Z,100942.66
2022-09-10T09:57:43.321Z,100939.94
2022-09-10T10:00:36.320Z,100929.19
2022-09-10T10:03:14.411Z,100939.94
2022-09-10T10:05:42.919Z,100864.81
2022-09-10T10:08:30.198Z,100949.03
2022-09-10T10:10:58.779Z,100952.59
2022-09-10T10:13:36.269Z,100950.06
2022-09-10T10:16:16.306Z,100949.03
2022-09-10T10:18:46.535Z,100950.06
2022-09-10T10:21:17.996Z,100956.97
2022-09-10T10:23:46.162Z,100954.13
2022-09-10T10:26:30.509Z,100953.16
2022-09-10T10:29:06.651Z,100954.97
2022-09-10T10:31:39.841Z,100938.88
2022-09-10T10:34:45.374Z,100946.47
2022-09-10T10:37:19.682Z,100940.53
2022-09-10T10:40:03.505Z,100951.31
2022-09-10T10:42:38.909Z,100950.72
2022-09-10T10:45:32.293Z,100938.25
2022-09-10T10:48:10.048Z,100941.66
2022-09-10T10:50:52.760Z,100947.06
2022-09-10T10:53:43.269Z,100941.66
2022-09-10T10:56:21.244Z,100941.66
2022-09-10T10:59:05.645Z,100949.91
2022-09-10T11:01:39.793Z,100938.97
2022-09-10T11:04:24.095Z,100944.34
2022-09-10T11:07:01.767Z,100941.66
2022-09-10T11:09:39.030Z,100947.06
2022-09-10T11:12:12.048Z,100941.66
2022-09-10T11:14:48.464Z,100908.03
2022-09-10T11:17:21.109Z,100930.34
2022-09-10T11:20:11.179Z,100938.13
2022-09-10T11:22:50.917Z,100936.59
2022-09-10T11:25:24.166Z,100913.16
2022-09-10T11:27:55.920Z,100938.13
2022-09-10T11:30:24.335Z,100924.09
2022-09-10T11:32:59.793Z,100907.47
2022-09-10T11:35:31.551Z,100924.94
2022-09-10T11:38:08.150Z,100922.97
2022-09-10T11:40:43.206Z,100934.56
2022-09-10T11:43:14.664Z,100913.63
2022-09-10T11:45:52.755Z,100924.66
2022-09-10T11:48:27.609Z,100920.72
2022-09-10T11:50:59.531Z,100920.13
2022-09-10T11:53:30.526Z,100925.50
2022-09-10T11:56:26.086Z,100914.72
2022-09-10T11:59:10.916Z,100925.50
2022-09-10T12:01:56.014Z,100923.78
2022-09-10T12:04:50.431Z,100932.88
2022-09-10T12:07:29.232Z,100936.44
2022-09-10T12:10:14.187Z,100923.94
2022-09-10T12:12:45.103Z,100926.91
2022-09-10T12:15:20.837Z,100933.69
2022-09-10T12:17:54.132Z,100930.00
2022-09-10T12:20:29.904Z,100932.84
2022-09-10T12:22:59.013Z,100928.59
2022-09-10T12:25:34.302Z,100930.63
2022-09-10T12:28:07.963Z,100930.31
2022-09-10T12:31:02.977Z,100935.41
2022-09-10T12:34:06.895Z,100922.91
2022-09-10T12:37:10.315Z,100919.84
2022-09-10T12:39:38.499Z,100925.50
2022-09-10T12:42:28.248Z,100916.72
2022-09-10T12:44:56.406Z,100915.03
2022-09-10T12:47:43.393Z,100914.72
2022-09-10T12:50:34.216Z,100923.78
2022-09-10T12:53:47.389Z,100920.41
2022-09-10T12:56:40.438Z,100924.09
2022-09-10T12:59:44.132Z,100918.72
2022-09-10T13:02:30.975Z,100927.78
2022-09-10T13:05:03.281Z,100928.66
2022-09-10T13:07:40.335Z,100924.94
2022-09-10T13:10:21.936Z,100895.31
2022-09-10T13:12:55.852Z,100924.09
2022-09-10T13:15:26.514Z,100920.41
2022-09-10T13:18:26.975Z,100929.47
2022-09-10T13:20:55.321Z,100913.63
2022-09-10T13:23:48.741Z,100918.72
2022-09-10T13:26:52.394Z,100919.56
2022-09-10T13:29:34.752Z,100919.00
2022-09-10T13:32:08.231Z,100913.63
2022-09-10T13:35:11.471Z,100913.31
2022-09-10T13:38:17.709Z,100907.25
2022-09-10T13:41:03.147Z,100908.94
2022-09-10T13:43:49.850Z,100901.72
2022-09-10T13:46:26.531Z,100902.53
2022-09-10T13:49:03.430Z,100907.94
2022-09-10T13:51:37.505Z,100907.94
2022-09-10T13:54:10.323Z,100913.31
2022-09-10T13:56:43.770Z,100900.88
2022-09-10T13:59:19.073Z,100904.88
2022-09-10T14:01:51.737Z,100913.31
2022-09-10T14:04:24.386Z,100912.50
2022-09-10T14:06:55.708Z,100917.88
2022-09-10T14:09:23.955Z,100914.31
2022-09-10T14:11:52.400Z,100904.63
2022-09-10T14:14:23.744Z,100916.00
2022-09-10T14:16:54.032Z,100916.88
2022-09-10T14:19:25.023Z,100912.19
2022-09-10T14:21:57.363Z,100918.41
2022-09-10T14:24:30.851Z,100905.94
2022-09-10T14:27:16.748Z,100905.94
2022-09-10T14:29:46.707Z,100907.63
2022-09-10T14:32:32.976Z,100855.97
2022-09-10T14:35:23.029Z,100911.34
2022-09-10T14:37:52.556Z,100907.63
2022-09-10T14:40:23.201Z,100909.09
2022-09-10T14:42:52.006Z,100911.34
2022-09-10T14:45:40.551Z,100910.31
2022-09-10T14:48:30.560Z,100906.81
2022-09-10T14:51:12.358Z,100916.72
2022-09-10T14:53:43.199Z,100909.66
2022-09-10T14:56:22.868Z,100893.31
2022-09-10T14:59:00.190Z,100927.50
2022-09-10T15:01:29.360Z,100909.66
2022-09-10T15:03:59.318Z,100887.22
2022-09-10T15:06:27.515Z,100918.13
2022-09-10T15:08:57.295Z,100913.59
2022-09-10T15:11:28.071Z,100895.09
2022-09-10T15:13:59.336Z,100906.66
2022-09-10T15:16:27.689Z,100909.59
2022-09-10T15:18:55.926Z,100919.25
2022-09-10T15:21:24.241Z,100914.16
2022-09-10T15:23:52.335Z,100870.06
2022-09-10T15:26:21.835Z,100926.47
2022-09-10T15:28:50.160Z,100926.31
2022-09-10T15:31:18.788Z,100924.63
2022-09-10T15:33:47.174Z,100931.00
2022-09-10T15:36:15.289Z,100923.75
2022-09-10T15:38:43.463Z,100922.91
2022-09-10T15:41:13.603Z,100913.88
2022-09-10T15:43:44.695Z,100928.59
2022-09-10T15:46:18.685Z,100925.22
2022-09-10T15:48:47.577Z,100914.88
2022-09-10T15:51:17.553Z,100925.22
2022-09-10T15:53:46.344Z,100918.13
2022-09-10T15:56:14.749Z,100927.19
2022-09-10T15:58:49.405Z,100927.06
2022-09-10T16:01:17.645Z,100918.72
2022-09-10T16:03:47.701Z,100941.41
2022-09-10T16:06:16.438Z,100925.81
2022-09-10T16:08:49.643Z,100895.63
2022-09-10T16:11:18.228Z,100944.34
2022-09-10T16:13:48.186Z,100921.03
2022-09-10T16:16:19.737Z,100936.88
2022-09-10T16:18:49.245Z,100948.75
2022-09-10T16:21:19.275Z,100945.34
2022-09-10T16:23:48.393Z,100953.41
2022-09-10T16:26:20.276Z,100954.44
2022-09-10T16:28:53.848Z,100956.97
2022-09-10T16:31:23.815Z,100950.72
2022-09-10T16:33:55.069Z,100950.72
2022-09-10T16:36:25.246Z,100956.13
2022-09-10T16:38:57.573Z,100953.03
2022-09-10T16:41:27.148Z,100934.69
2022-09-10T16:43:59.452Z,100933.00
2022-09-10T16:46:28.787Z,100971.44
2022-09-10T16:48:58.657Z,100935.56
2022-09-10T16:51:29.167Z,100968.91
2022-09-10T16:54:01.642Z,100982.22
2022-09-10T16:56:31.147Z,100980.34
2022-09-10T16:59:00.927Z,100969.88
2022-09-10T17:01:29.599Z,100977.97
2022-09-10T17:03:58.224Z,100972.44
2022-09-10T17:06:29.289Z,100974.97
2022-09-10T17:08:58.894Z,100974.81
2022-09-10T17:11:29.216Z,100974.00
2022-09-10T17:13:58.649Z,100974.97
2022-09-10T17:16:30.911Z,100971.28
2022-09-10T17:19:00.279Z,100980.19
2022-09-10T17:21:29.861Z,100974.81
2022-09-10T17:23:58.322Z,100975.66
2022-09-10T17:26:27.166Z,100973.72
2022-09-10T17:28:56.997Z,100970.28
2022-09-10T17:31:27.517Z,100977.38
2022-09-10T17:33:57.782Z,100972.28
2022-09-10T17:36:26.783Z,100981.91
2022-09-10T17:38:55.488Z,100981.06
2022-09-10T17:41:25.315Z,100977.66
2022-09-10T17:43:53.512Z,100980.34
2022-09-10T17:46:23.502Z,100986.44
2022-09-10T17:48:53.661Z,100986.44
2022-09-10T17:51:24.853Z,100986.44
2022-09-10T17:53:53.974Z,100988.44
2022-09-10T17:56:23.135Z,100993.56
2022-09-10T17:58:55.950Z,100984.06
2022-09-10T18:01:26.536Z,100997.22
2022-09-10T18:03:55.596Z,100949.47
2022-09-10T18:06:25.651Z,101000.66
2022-09-10T18:08:54.339Z,100989.44
2022-09-10T18:11:24.581Z,100994.53
2022-09-10T18:13:53.941Z,100995.28
2022-09-10T18:16:24.430Z,101002.19
2022-09-10T18:18:55.809Z,101003.47
2022-09-10T18:21:27.298Z,101002.59
2022-09-10T18:23:57.616Z,101001.53
2022-09-10T18:26:27.361Z,101007.75
2022-09-10T18:28:59.394Z,101005.47
2022-09-10T18:31:30.110Z,101003.50
2022-09-10T18:33:58.431Z,101000.97
2022-09-10T18:36:28.786Z,101011.69
2022-09-10T18:38:56.961Z,101009.72
2022-09-10T18:41:27.011Z,101017.09
2022-09-10T18:43:57.793Z,101005.47
2022-09-10T18:46:26.178Z,101008.00
2022-09-10T18:48:54.687Z,101008.84
2022-09-10T18:51:24.842Z,101020.19
2022-09-10T18:53:56.709Z,101015.09
2022-09-10T18:56:27.692Z,101011.44
2022-09-10T18:58:57.295Z,101013.13
2022-09-10T19:01:27.182Z,101009.56
2022-09-10T19:03:57.631Z,100989.38
2022-09-10T19:06:27.070Z,101013.13
2022-09-10T19:08:58.973Z,101006.63
2022-09-10T19:11:33.088Z,101003.22
2022-09-10T19:14:02.901Z,100999.81
2022-09-10T19:16:32.623Z,101006.91
2022-09-10T19:19:02.573Z,101008.59
2022-09-10T19:21:32.970Z,101010.44
2022-09-10T19:24:03.759Z,100999.50
2022-09-10T19:26:33.734Z,101008.59
2022-09-10T19:29:04.030Z,101006.50
2022-09-10T19:31:34.180Z,101006.91
2022-09-10T19:34:04.045Z,100978.38
2022-09-10T19:36:34.667Z,101006.63
2022-09-10T19:39:05.392Z,101012.00
2022-09-10T19:41:35.585Z,101011.44
2022-09-10T19:44:04.896Z,101010.59
2022-09-10T19:46:33.530Z,100998.97
2022-09-10T19:49:01.857Z,100994.19
2022-09-10T19:51:31.815Z,101005.19
2022-09-10T19:54:00.703Z,101006.91
2022-09-10T19:56:32.820Z,101000.53
2022-09-10T19:59:02.681Z,100992.44
2022-09-10T20:01:32.763Z,100992.75
2022-09-10T20:04:02.381Z,100997.81
2022-09-10T20:06:31.071Z,100954.28
2022-09-10T20:08:59.339Z,100994.13
2022-09-10T20:11:31.447Z,100990.44
2022-09-10T20:14:01.423Z,100995.84
2022-09-10T20:16:30.030Z,100991.44
2022-09-10T20:18:58.696Z,101004.91
2022-09-10T20:21:29.699Z,101005.59
2022-09-10T20:23:57.823Z,100997.69
2022-09-10T20:26:28.468Z,101000.38
2022-09-10T20:29:00.769Z,101009.97
2022-09-10T20:31:31.378Z,101013.69
2022-09-10T20:34:01.111Z,101009.97
2022-09-10T20:36:29.752Z,101011.69
2022-09-10T20:38:57.880Z,101005.91
2022-09-10T20:41:30.236Z,101005.31
2022-09-10T20:44:02.621Z,101012.53
2022-09-10T20:46:32.569Z,101011.69
2022-09-10T20:49:03.281Z,101013.38
2022-09-10T20:51:34.463Z,101014.13
2022-09-10T20:54:02.919Z,101023.31
2022-09-10T20:56:31.139Z,101013.69
2022-09-10T20:59:02.003Z,101023.44
2022-09-10T21:01:32.218Z,101017.25
2022-09-10T21:04:04.178Z,101019.06
2022-09-10T21:06:34.402Z,101019.06
2022-09-10T21:09:03.993Z,101026.16
2022-09-10T21:11:34.111Z,101025.16
2022-09-10T21:14:05.742Z,101026.16
2022-09-10T21:16:35.983Z,101021.63
2022-09-10T21:19:07.459Z,101022.47
2022-09-10T21:21:37.172Z,101026.16
2022-09-10T21:24:07.481Z,101029.84
2022-09-10T21:26:37.608Z,101029.84
2022-09-10T21:29:10.749Z,101033.25
2022-09-10T21:31:39.163Z,101035.22
2022-09-10T21:34:07.826Z,101036.66
2022-09-10T21:36:37.760Z,100997.78
2022-09-10T21:39:09.839Z,101031.53
2022-09-10T21:41:39.994Z,101032.25
2022-09-10T21:44:14.289Z,101029.56
2022-09-10T21:46:42.779Z,101027.88
2022-09-10T21:49:11.079Z,101030.56
2022-09-10T21:51:39.200Z,101027.88
2022-09-10T21:54:07.416Z,101027.72
2022-09-10T21:56:35.581Z,101032.13
2022-09-10T21:59:03.729Z,101022.31
2022-09-10T22:01:33.748Z,100970.22
2022-09-10T22:04:02.300Z,101027.28
2022-09-10T22:06:31.747Z,101032.38
2022-09-10T22:09:02.168Z,101032.38
2022-09-10T22:11:32.507Z,101028.97
2022-09-10T22:14:02.179Z,101030.38
2022-09-10T22:16:33.392Z,101031.53
2022-09-10T22:19:03.377Z,101026.13
2022-09-10T22:21:31.689Z,101033.22
2022-09-10T22:23:59.816Z,101037.78
2022-09-10T22:26:29.362Z,101040.47
2022-09-10T22:28:59.439Z,101032.69
2022-09-10T22:31:31.310Z,101043.03
2022-09-10T22:34:03.157Z,101038.63
2022-09-10T22:36:34.209Z,101038.63
2022-09-10T22:39:04.810Z,101028.69
2022-09-10T22:41:35.266Z,101044.03
2022-09-10T22:44:04.070Z,101044.03
2022-09-10T22:46:33.131Z,101033.25
2022-09-10T22:49:03.115Z,101033.25
2022-09-10T22:51:34.387Z,101042.31
2022-09-10T22:54:02.889Z,101037.78
2022-09-10T22:56:31.026Z,101042.31
2022-09-10T22:59:00.453Z,101027.38
2022-09-10T23:01:31.082Z,101047.69
2022-09-10T23:04:00.267Z,101053.09
2022-09-10T23:06:31.940Z,101048.84
2022-09-10T23:09:10.551Z,101044.31
2022-09-10T23:11:39.810Z,101047.16
2022-09-10T23:14:10.350Z,101044.63
2022-09-10T23:16:40.323Z,101048.00
2022-09-10T23:19:11.963Z,101036.13
2022-09-10T23:21:43.920Z,101038.22
2022-09-10T23:24:14.366Z,101040.91
2022-09-10T23:26:43.475Z,101040.91
2022-09-10T23:29:12.485Z,101028.59
2022-09-10T23:31:41.952Z,101045.72
2022-09-10T23:34:12.905Z,101047.44
2022-09-10T23:36:43.891Z,101006.44
2022-09-10T23:39:14.593Z,101047.44
2022-09-10T23:41:42.971Z,101038.50
2022-09-10T23:44:11.549Z,101020.28
2022-09-10T23:46:39.972Z,101041.91
2022-09-10T23:49:09.060Z,101032.25
2022-09-10T23:51:37.831Z,101031.84
2022-09-10T23:54:08.515Z,101043.75
2022-09-10T23:56:37.203Z,101039.19
2022-09-10T23:59:05.273Z,101035.53
